Time;durP1;ratioP1;P1;durP2;ratioP2;P2;SDS_P1;SDS_P2;PMS_P1;PMS_P2;Temp;Humidity;BMP_temperature;BMP_pressure;BME280_temperature;BME280_humidity;BME280_pressure;Samples;Min_cycle;Max_cycle;Signal;HPM_P1;HPM_P2
2023/03/12 00:04:04;;;;;;;14.97;13.67;;;1.90;94.10;;;;;;2612591;39;20763;-74
2023/03/12 00:09:51;;;;;;;14.87;13.47;;;2.00;93.00;;;;;;2613566;54;20134;-74
2023/03/12 00:15:39;;;;;;;15.63;14.03;;;1.80;94.60;;;;;;2613142;54;20169;-75
2023/03/12 00:21:27;;;;;;;16.00;13.97;;;1.70;96.20;;;;;;2611488;54;20126;-74
2023/03/12 00:27:14;;;;;;;15.73;14.43;;;1.70;99.10;;;;;;2612120;54;20156;-74
2023/03/12 00:33:02;;;;;;;19.60;12.90;;;1.70;99.20;;;;;;2612592;54;20130;-75
2023/03/12 00:38:50;;;;;;;14.23;12.77;;;1.80;98.20;;;;;;2612264;54;20153;-74
2023/03/12 00:44:38;;;;;;;14.10;12.90;;;1.90;96.90;;;;;;2613258;54;20528;-74
2023/03/12 00:50:26;;;;;;;13.80;12.60;;;1.90;95.10;;;;;;2614835;54;20147;-74
2023/03/12 00:53:48;;;;;;;12.60;11.60;;;1.90;95.00;;;;;;2612609;54;20519;-74
2023/03/12 00:56:14;;;;;;;12.33;11.23;;;1.90;93.80;;;;;;2612760;54;20163;-74
2023/03/12 01:02:02;;;;;;;13.07;11.87;;;2.00;91.70;;;;;;2612004;54;20403;-74
2023/03/12 01:07:50;;;;;;;13.97;12.57;;;1.90;91.00;;;;;;2611589;54;20130;-74
2023/03/12 01:13:37;;;;;;;12.73;11.77;;;2.10;87.10;;;;;;2613229;54;20131;-75
2023/03/12 01:19:25;;;;;;;11.97;10.90;;;2.20;79.50;;;;;;2612723;39;20509;-74
2023/03/12 01:25:12;;;;;;;11.10;9.97;;;2.30;73.70;;;;;;2611815;54;20435;-74
2023/03/12 01:37:32;;;;;;;10.87;9.90;;;2.30;66.30;;;;;;2611066;54;20380;-75
2023/03/12 01:43:29;;;;;;;11.07;9.90;;;2.40;62.50;;;;;;2612203;54;20383;-74
2023/03/12 01:49:27;;;;;;;10.10;9.40;;;2.50;59.70;;;;;;2614055;39;20826;-75
2023/03/12 01:58:40;;;;;;;10.53;9.63;;;2.60;56.70;;;;;;2610677;54;20428;-74
2023/03/12 02:04:29;;;;;;;11.07;9.97;;;2.60;55.60;;;;;;2611907;54;20378;-75
2023/03/12 02:10:17;;;;;;;10.33;9.20;;;2.70;53.40;;;;;;2611375;54;20406;-75
2023/03/12 02:16:05;;;;;;;9.30;8.80;;;2.70;53.10;;;;;;2612963;54;20512;-76
2023/03/12 02:21:54;;;;;;;10.47;9.77;;;2.70;52.60;;;;;;2612525;54;20415;-74
2023/03/12 02:27:42;;;;;;;10.03;9.43;;;2.70;52.60;;;;;;2614100;54;20416;-73
2023/03/12 02:33:30;;;;;;;10.80;10.10;;;2.70;53.90;;;;;;2612208;54;20507;-75
2023/03/12 02:39:18;;;;;;;10.47;9.60;;;2.70;54.20;;;;;;2611934;54;20121;-75
2023/03/12 02:45:06;;;;;;;9.40;8.80;;;2.70;54.70;;;;;;2613150;54;20362;-70
2023/03/12 02:50:54;;;;;;;9.93;8.90;;;2.70;55.20;;;;;;2612384;54;20394;-70
2023/03/12 02:53:57;;;;;;;10.20;9.30;;;2.70;56.30;;;;;;2610955;54;20395;-69
2023/03/12 02:56:26;;;;;;;9.73;8.93;;;2.70;55.30;;;;;;2614365;54;20189;-69
2023/03/12 03:02:13;;;;;;;9.47;8.87;;;2.80;55.20;;;;;;2613470;54;20383;-70
2023/03/12 03:08:02;;;;;;;9.03;8.53;;;2.90;52.80;;;;;;2613698;54;20138;-71
2023/03/12 03:13:51;;;;;;;9.27;8.77;;;2.80;52.40;;;;;;2613666;54;20406;-70
2023/03/12 03:19:39;;;;;;;8.97;8.47;;;2.70;53.70;;;;;;2612368;54;20424;-71
2023/03/12 03:25:26;;;;;;;10.57;9.77;;;2.70;53.60;;;;;;2612547;54;20187;-75
2023/03/12 03:31:15;;;;;;;10.10;9.20;;;2.60;55.00;;;;;;2613102;54;21053;-74
2023/03/12 03:37:02;;;;;;;10.03;9.03;;;2.70;53.50;;;;;;2612706;54;20382;-75
2023/03/12 03:42:50;;;;;;;9.13;8.47;;;2.80;53.50;;;;;;2613793;54;20118;-75
2023/03/12 03:48:38;;;;;;;10.90;9.47;;;2.80;54.60;;;;;;2615004;54;20122;-75
2023/03/12 03:58:35;;;;;;;10.27;9.57;;;2.80;54.90;;;;;;2613076;54;20475;-74
2023/03/12 04:04:23;;;;;;;8.90;8.40;;;2.70;56.00;;;;;;2613930;54;20402;-73
2023/03/12 04:10:11;;;;;;;21.23;10.20;;;2.70;57.20;;;;;;2612976;54;20167;-74
2023/03/12 04:15:59;;;;;;;10.50;9.60;;;2.80;58.00;;;;;;2613858;54;20399;-73
2023/03/12 04:21:47;;;;;;;10.33;9.40;;;2.90;56.70;;;;;;2613523;39;20504;-74
2023/03/12 04:27:35;;;;;;;10.60;9.80;;;3.00;54.50;;;;;;2613067;54;20958;-74
2023/03/12 04:33:22;;;;;;;10.40;9.50;;;3.20;53.00;;;;;;2612903;54;20154;-74
2023/03/12 04:39:10;;;;;;;9.10;8.47;;;3.20;52.70;;;;;;2611643;54;20135;-74
2023/03/12 04:44:58;;;;;;;10.17;9.37;;;3.20;51.50;;;;;;2613209;54;20669;-74
2023/03/12 04:50:46;;;;;;;9.30;8.80;;;3.30;50.40;;;;;;2612027;31;20617;-73
2023/03/12 04:54:01;;;;;;;10.23;9.37;;;3.30;51.00;;;;;;2610787;54;20390;-74
2023/03/12 04:56:26;;;;;;;9.50;8.90;;;3.20;51.40;;;;;;2612812;46;20190;-74
2023/03/12 05:02:14;;;;;;;9.80;8.80;;;3.40;49.80;;;;;;2614401;54;20138;-73
2023/03/12 05:08:03;;;;;;;9.57;8.97;;;3.40;48.20;;;;;;2612143;54;20183;-73
2023/03/12 05:13:51;;;;;;;9.57;8.93;;;3.40;47.10;;;;;;2612547;39;20797;-74
2023/03/12 05:19:39;;;;;;;9.50;8.70;;;3.60;46.70;;;;;;2612701;39;20521;-74
2023/03/12 05:25:26;;;;;;;9.13;8.43;;;3.60;45.70;;;;;;2613819;54;20998;-74
2023/03/12 05:31:15;;;;;;;9.60;9.00;;;3.60;45.60;;;;;;2612206;54;20130;-74
2023/03/12 05:37:03;;;;;;;9.53;8.80;;;3.70;45.40;;;;;;2611475;54;20426;-73
2023/03/12 05:42:52;;;;;;;9.57;9.00;;;3.70;45.00;;;;;;2613463;54;20864;-73
2023/03/12 05:48:39;;;;;;;9.17;8.57;;;3.70;46.00;;;;;;2610231;54;20374;-74
2023/03/12 05:58:33;;;;;;;9.23;8.50;;;3.70;46.70;;;;;;2612461;54;20354;-74
2023/03/12 06:04:21;;;;;;;10.50;9.70;;;3.70;48.80;;;;;;2611387;54;20409;-74
2023/03/12 06:10:09;;;;;;;9.17;8.50;;;3.70;50.60;;;;;;2611944;46;21135;-73
2023/03/12 06:26:52;;;;;;;9.40;8.70;;;3.40;73.90;;;;;;2610917;54;20342;-73
2023/03/12 06:32:39;;;;;;;9.00;8.10;;;3.60;77.90;;;;;;2611412;39;20872;-69
2023/03/12 06:38:27;;;;;;;8.70;8.10;;;3.70;81.40;;;;;;2609765;54;20125;-70
2023/03/12 06:44:14;;;;;;;9.43;8.73;;;3.70;88.70;;;;;;2611120;54;20138;-69
2023/03/12 06:50:01;;;;;;;9.17;8.53;;;3.60;94.10;;;;;;2609650;54;21022;-72
2023/03/12 06:59:10;;;;;;;8.00;7.50;;;3.60;99.90;;;;;;2613431;54;20388;-69
2023/03/12 07:04:58;;;;;;;11.13;8.50;;;3.60;99.90;;;;;;2613753;54;20649;-69
2023/03/12 07:10:46;;;;;;;11.63;8.80;;;3.50;99.90;;;;;;2612277;54;20194;-69
2023/03/12 07:16:34;;;;;;;9.17;8.23;;;3.60;99.90;;;;;;2612539;54;20150;-69
2023/03/12 07:22:21;;;;;;;7.53;6.93;;;3.70;99.90;;;;;;2611772;54;20127;-69
2023/03/12 07:28:11;;;;;;;7.40;6.80;;;3.60;99.90;;;;;;2611105;54;20197;-71
2023/03/12 07:33:58;;;;;;;8.50;5.73;;;3.70;99.90;;;;;;2607781;54;20422;-69
2023/03/12 07:39:50;;;;;;;6.47;5.87;;;3.80;99.90;;;;;;2613542;54;20169;-68
2023/03/12 07:45:38;;;;;;;5.67;5.30;;;3.80;99.90;;;;;;2610565;54;20410;-69
2023/03/12 07:51:26;;;;;;;7.43;6.80;;;3.80;99.90;;;;;;2611811;54;20482;-68
2023/03/12 07:54:51;;;;;;;8.50;6.60;;;3.90;99.90;;;;;;2611229;54;20390;-68
2023/03/12 07:57:17;;;;;;;5.80;5.30;;;3.90;99.90;;;;;;2609943;54;20238;-69
2023/03/12 08:03:05;;;;;;;8.60;6.63;;;3.90;99.90;;;;;;2613065;39;20735;-69
2023/03/12 08:08:52;;;;;;;10.93;6.20;;;3.90;99.90;;;;;;2613692;54;20195;-68
2023/03/12 08:14:41;;;;;;;9.03;7.23;;;4.10;99.90;;;;;;2611304;54;20154;-68
2023/03/12 08:20:29;;;;;;;11.90;6.83;;;4.30;99.90;;;;;;2612450;54;20803;-68
2023/03/12 08:26:16;;;;;;;9.40;6.70;;;4.30;99.90;;;;;;2613516;54;20163;-68
2023/03/12 08:32:04;;;;;;;6.13;5.63;;;4.40;99.90;;;;;;2612580;54;20178;-69
2023/03/12 08:37:52;;;;;;;6.60;5.97;;;4.70;99.90;;;;;;2613088;39;20771;-69
2023/03/12 08:43:39;;;;;;;10.07;7.20;;;4.50;99.90;;;;;;2614775;54;20123;-69
2023/03/12 08:49:27;;;;;;;12.93;6.67;;;4.50;99.90;;;;;;2610985;54;20151;-68
2023/03/12 08:59:22;;;;;;;11.80;7.10;;;4.90;99.90;;;;;;2613449;54;20920;-69
2023/03/12 09:05:10;;;;;;;7.40;6.70;;;5.30;99.90;;;;;;2613742;39;20421;-69
2023/03/12 09:10:57;;;;;;;7.87;6.73;;;5.50;99.90;;;;;;2613073;54;20343;-69
2023/03/12 09:16:45;;;;;;;6.37;5.77;;;5.40;99.90;;;;;;2612881;54;20175;-69
2023/03/12 09:22:36;;;;;;;8.40;6.33;;;5.30;99.90;;;;;;2614030;39;20508;-70
2023/03/12 09:28:24;;;;;;;6.10;5.50;;;5.40;99.90;;;;;;2612626;54;20354;-69
2023/03/12 09:34:12;;;;;;;5.90;5.40;;;5.50;99.90;;;;;;2613470;54;20618;-68
2023/03/12 09:40:00;;;;;;;6.57;5.90;;;5.40;99.90;;;;;;2613001;46;20141;-69
2023/03/12 09:45:49;;;;;;;5.70;4.80;;;5.40;99.90;;;;;;2611437;54;20960;-69
2023/03/12 09:51:42;;;;;;;7.10;4.13;;;5.50;99.90;;;;;;2610551;54;20378;-69
2023/03/12 09:54:45;;;;;;;5.50;4.00;;;5.60;99.90;;;;;;2612332;51;20387;-68
2023/03/12 09:57:18;;;;;;;4.80;3.73;;;5.70;99.90;;;;;;2610778;54;20450;-69
2023/03/12 10:29:23;;;;;;;4.77;4.10;;;6.10;99.90;;;;;;2613140;54;20396;-69
2023/03/12 10:41:47;;;;;;;5.67;5.07;;;6.20;99.90;;;;;;2610872;54;20409;-69
2023/03/12 10:47:42;;;;;;;7.37;4.93;;;6.10;99.90;;;;;;2612604;54;20371;-69
2023/03/12 10:53:34;;;;;;;8.80;5.43;;;6.40;99.90;;;;;;2612088;54;20354;-69
2023/03/12 11:02:47;;;;;;;6.73;5.23;;;6.50;99.90;;;;;;2610917;54;20508;-70
2023/03/12 11:08:36;;;;;;;4.53;3.63;;;6.40;99.90;;;;;;2610389;39;20779;-70
2023/03/12 11:14:25;;;;;;;6.30;5.70;;;6.20;99.90;;;;;;2610047;39;20473;-70
2023/03/12 11:20:24;;;;;;;9.33;5.47;;;6.50;99.90;;;;;;2613801;39;20830;-69
2023/03/12 11:26:21;;;;;;;7.60;6.73;;;6.40;99.90;;;;;;2612868;39;21046;-70
2023/03/12 11:32:40;;;;;;;6.93;5.70;;;6.80;99.90;;;;;;2613877;54;20394;-70
2023/03/12 11:35:43;;;;;;;8.00;6.80;;;6.80;99.90;;;;;;2612869;47;20400;-70
2023/03/12 11:51:13;;;;;;;10.80;7.73;;;7.40;99.90;;;;;;2611703;54;21053;-69
2023/03/12 12:03:16;;;;;;;16.83;10.90;;;8.30;99.90;;;;;;2611075;54;20467;-71
2023/03/12 12:06:04;;;;;;;11.37;9.33;;;8.20;99.90;;;;;;2612176;54;20519;-70
2023/03/12 12:31:44;;;;;;;11.00;8.80;;;8.80;99.90;;;;;;2612700;54;20398;-71
2023/03/12 12:44:04;;;;;;;20.13;14.00;;;9.30;99.90;;;;;;2609373;54;20371;-71
2023/03/12 12:49:57;;;;;;;17.90;14.07;;;9.10;99.90;;;;;;2612920;54;20725;-71
2023/03/12 13:06:10;;;;;;;15.60;10.47;;;9.00;99.90;;;;;;2613825;54;20394;-70
2023/03/12 13:11:57;;;;;;;20.40;11.67;;;10.00;99.90;;;;;;2612830;54;20407;-70
2023/03/12 13:17:51;;;;;;;18.60;12.30;;;12.40;99.90;;;;;;2611481;54;20178;-70
2023/03/12 13:30:34;;;;;;;23.17;14.80;;;10.90;99.90;;;;;;2609421;54;20358;-71
2023/03/12 13:36:27;;;;;;;16.03;12.10;;;11.70;99.90;;;;;;2611115;54;20503;-70
2023/03/12 13:42:23;;;;;;;19.37;14.20;;;11.80;99.90;;;;;;2613661;54;20367;-71
2023/03/12 13:48:16;;;;;;;11.03;8.30;;;11.10;99.90;;;;;;2614113;54;20391;-70
2023/03/12 13:54:04;;;;;;;21.07;12.93;;;11.30;99.90;;;;;;2614197;54;20367;-72
2023/03/12 13:59:51;;;;;;;19.13;11.00;;;11.30;99.90;;;;;;2614005;54;20153;-71
2023/03/12 14:22:21;;;;;;;30.87;11.80;;;11.60;99.90;;;;;;2610948;54;20475;-70
2023/03/12 14:28:23;;;;;;;20.73;8.80;;;11.50;99.90;;;;;;2610705;54;20530;-70
2023/03/12 14:34:19;;;;;;;19.00;9.80;;;11.50;99.90;;;;;;2610949;54;21165;-71
2023/03/12 15:09:42;;;;;;;27.30;9.03;;;11.10;99.90;;;;;;2607302;39;20811;-71
2023/03/12 15:21:46;;;;;;;20.87;9.67;;;11.50;99.90;;;;;;2613616;54;20536;-70
2023/03/12 15:27:34;;;;;;;21.80;8.63;;;11.70;99.90;;;;;;2611338;46;20194;-70
2023/03/12 15:33:23;;;;;;;20.47;5.73;;;11.70;99.90;;;;;;2610962;54;20230;-71
2023/03/12 15:39:30;;;;;;;23.20;6.53;;;11.70;99.90;;;;;;2610005;54;20375;-69
2023/03/12 15:45:24;;;;;;;21.07;7.40;;;11.70;99.90;;;;;;2610284;39;20831;-69
2023/03/12 15:51:16;;;;;;;18.63;6.93;;;11.70;99.90;;;;;;2612620;54;20355;-69
2023/03/12 16:03:37;;;;;;;15.97;7.43;;;11.70;99.90;;;;;;2612192;39;20909;-71
2023/03/12 16:09:28;;;;;;;24.33;7.83;;;11.70;99.90;;;;;;2612467;54;20387;-70
2023/03/12 16:15:21;;;;;;;24.73;10.57;;;11.70;99.90;;;;;;2610107;54;20366;-70
2023/03/12 16:21:09;;;;;;;34.67;12.87;;;11.70;99.90;;;;;;2611274;39;20716;-71
2023/03/12 16:26:58;;;;;;;23.53;11.60;;;11.80;99.90;;;;;;2612398;54;20374;-70
2023/03/12 16:32:46;;;;;;;17.53;10.00;;;11.80;99.90;;;;;;2611233;54;20386;-70
2023/03/12 16:38:34;;;;;;;21.63;7.93;;;11.70;99.90;;;;;;2610696;46;20142;-71
2023/03/12 16:44:22;;;;;;;22.37;7.40;;;11.70;99.90;;;;;;2609636;54;20187;-70
2023/03/12 16:56:54;;;;;;;21.20;7.70;;;11.70;99.90;;;;;;2610412;54;20664;-71
2023/03/12 17:02:42;;;;;;;18.27;9.40;;;11.60;99.90;;;;;;2609702;54;20130;-70
2023/03/12 17:11:53;;;;;;;14.73;6.50;;;11.40;99.90;;;;;;2610852;54;20364;-70
2023/03/12 17:17:40;;;;;;;15.20;7.63;;;11.40;99.90;;;;;;2608557;54;20399;-70
2023/03/12 17:23:27;;;;;;;33.60;13.87;;;11.40;99.90;;;;;;2610199;54;20708;-70
2023/03/12 17:29:15;;;;;;;27.40;10.03;;;11.30;99.90;;;;;;2610545;54;20156;-70
2023/03/12 17:35:05;;;;;;;12.00;8.60;;;11.20;99.90;;;;;;2611674;54;20153;-71
2023/03/12 17:38:08;;;;;;;29.73;11.80;;;11.10;99.90;;;;;;2612215;39;20853;-70
2023/03/12 17:40:37;;;;;;;16.20;8.27;;;11.20;99.90;;;;;;2612862;54;20410;-70
2023/03/12 17:46:25;;;;;;;17.83;8.40;;;11.20;99.90;;;;;;2613698;54;20961;-70
2023/03/12 17:52:13;;;;;;;28.40;11.13;;;11.00;99.90;;;;;;2611357;39;20534;-71
2023/03/12 17:58:02;;;;;;;24.07;9.90;;;10.90;99.90;;;;;;2611021;54;20235;-71
2023/03/12 18:03:50;;;;;;;10.40;6.07;;;11.00;99.90;;;;;;2611485;54;20430;-71
2023/03/12 18:09:37;;;;;;;14.40;7.30;;;10.90;99.90;;;;;;2613488;54;20447;-71
2023/03/12 18:15:25;;;;;;;23.13;8.27;;;11.00;99.90;;;;;;2614413;54;20159;-70
2023/03/12 18:21:13;;;;;;;19.57;7.70;;;10.90;99.90;;;;;;2612079;54;20154;-72
2023/03/12 18:27:00;;;;;;;13.90;8.73;;;11.00;99.90;;;;;;2613574;39;22312;-71
2023/03/12 18:32:48;;;;;;;14.63;7.83;;;10.90;99.90;;;;;;2614349;54;20247;-71
2023/03/12 18:38:36;;;;;;;14.70;6.90;;;10.90;99.90;;;;;;2612725;54;20130;-71
2023/03/12 18:44:24;;;;;;;16.93;7.93;;;10.80;99.90;;;;;;2612444;54;20138;-70
2023/03/12 18:50:12;;;;;;;21.17;8.83;;;10.70;99.90;;;;;;2612215;54;20177;-70
2023/03/12 18:55:59;;;;;;;21.67;7.77;;;10.80;99.90;;;;;;2611201;54;20391;-70
2023/03/12 19:01:47;;;;;;;24.73;8.40;;;10.80;99.90;;;;;;2609179;54;20484;-69
2023/03/12 19:11:56;;;;;;;20.50;9.30;;;10.80;99.90;;;;;;2611079;54;20419;-69
2023/03/12 19:17:44;;;;;;;23.77;7.87;;;10.70;99.90;;;;;;2609310;54;20456;-70
2023/03/12 19:23:32;;;;;;;15.47;8.07;;;10.80;99.90;;;;;;2612744;39;20569;-70
2023/03/12 19:29:20;;;;;;;18.83;8.60;;;10.90;99.90;;;;;;2596806;54;20151;-69
2023/03/12 19:35:09;;;;;;;18.50;6.73;;;10.80;99.90;;;;;;2610872;54;20231;-70
2023/03/12 19:40:57;;;;;;;20.00;6.70;;;10.80;99.90;;;;;;2611323;54;20403;-70
2023/03/12 19:46:45;;;;;;;18.00;6.93;;;10.80;99.90;;;;;;2611924;54;20138;-70
2023/03/12 19:52:33;;;;;;;18.57;6.27;;;10.90;99.90;;;;;;2611028;54;20142;-70
2023/03/12 19:58:21;;;;;;;18.60;7.60;;;10.80;99.90;;;;;;2610438;54;20619;-71
2023/03/12 20:04:10;;;;;;;19.13;8.37;;;10.80;99.90;;;;;;2611716;39;20543;-70
2023/03/12 20:07:24;;;;;;;19.77;8.90;;;10.80;99.90;;;;;;2613618;54;20414;-70
2023/03/12 20:09:51;;;;;;;15.73;7.37;;;10.80;99.90;;;;;;2611216;54;20416;-70
2023/03/12 20:15:39;;;;;;;26.63;7.90;;;10.80;99.90;;;;;;2613918;54;20422;-72
2023/03/12 20:21:26;;;;;;;21.70;9.50;;;10.80;99.90;;;;;;2614009;54;20391;-71
2023/03/12 20:27:14;;;;;;;21.17;7.17;;;10.80;99.90;;;;;;2614275;54;20123;-70
2023/03/12 20:33:04;;;;;;;25.43;10.93;;;10.80;99.90;;;;;;2614755;54;20641;-70
2023/03/12 20:38:52;;;;;;;28.03;9.60;;;10.60;99.90;;;;;;2614262;39;20770;-71
2023/03/12 20:44:40;;;;;;;8.93;5.77;;;10.70;99.90;;;;;;2611111;39;20534;-70
2023/03/12 20:50:28;;;;;;;23.33;8.27;;;10.70;99.90;;;;;;2612931;54;20662;-69
2023/03/12 20:56:15;;;;;;;23.47;8.20;;;10.70;99.90;;;;;;2614897;39;20518;-70
2023/03/12 21:02:05;;;;;;;16.23;8.20;;;10.70;99.90;;;;;;2612973;54;20118;-69
2023/03/12 21:11:55;;;;;;;25.93;8.90;;;10.70;99.90;;;;;;2612896;54;20367;-69
2023/03/12 21:17:42;;;;;;;18.50;8.47;;;10.80;99.90;;;;;;2612323;54;20371;-69
2023/03/12 21:23:31;;;;;;;14.83;8.10;;;10.70;99.90;;;;;;2612446;54;20134;-69
2023/03/12 21:29:18;;;;;;;11.03;6.00;;;10.70;99.90;;;;;;2609872;54;20511;-69
2023/03/12 21:35:07;;;;;;;15.93;9.00;;;10.70;99.90;;;;;;2612037;54;20158;-69
2023/03/12 21:40:57;;;;;;;15.07;8.57;;;10.70;99.90;;;;;;2609705;54;20371;-70
2023/03/12 21:46:45;;;;;;;13.43;7.07;;;10.60;99.90;;;;;;2612197;54;20375;-70
2023/03/12 21:52:37;;;;;;;13.50;7.40;;;10.70;99.90;;;;;;2613244;31;20602;-70
2023/03/12 21:58:27;;;;;;;21.50;8.50;;;10.70;99.90;;;;;;2613941;54;20367;-71
2023/03/12 22:04:14;;;;;;;15.60;8.90;;;10.70;99.90;;;;;;2614505;54;20399;-70
2023/03/12 22:07:24;;;;;;;21.03;9.13;;;10.70;99.90;;;;;;2613190;47;20419;-70
2023/03/12 22:09:50;;;;;;;14.83;7.27;;;10.70;99.90;;;;;;2610793;54;20158;-71
2023/03/12 22:15:37;;;;;;;13.60;8.00;;;10.60;99.90;;;;;;2612601;54;20693;-70
2023/03/12 22:21:25;;;;;;;12.43;7.33;;;10.50;99.90;;;;;;2612574;46;20295;-70
2023/03/12 22:27:12;;;;;;;27.40;8.00;;;10.60;99.90;;;;;;2611750;54;20126;-71
2023/03/12 22:33:00;;;;;;;11.87;8.13;;;10.70;99.90;;;;;;2611634;54;20234;-70
2023/03/12 22:38:48;;;;;;;10.03;6.80;;;10.70;99.90;;;;;;2612136;54;20166;-71
2023/03/12 22:44:40;;;;;;;17.50;8.77;;;10.80;99.90;;;;;;2611988;54;20419;-70
2023/03/12 22:50:28;;;;;;;13.67;6.80;;;10.90;99.90;;;;;;2611809;54;20371;-70
2023/03/12 22:56:17;;;;;;;14.90;7.57;;;10.90;99.90;;;;;;2612782;54;20270;-70
2023/03/12 23:02:05;;;;;;;15.10;8.10;;;11.00;99.90;;;;;;2612874;54;21217;-70
2023/03/12 23:11:57;;;;;;;24.10;9.07;;;10.80;99.90;;;;;;2610469;54;20375;-72
2023/03/12 23:17:45;;;;;;;12.23;5.57;;;10.80;99.90;;;;;;2613017;54;20381;-70
2023/03/12 23:23:34;;;;;;;18.30;7.63;;;10.80;99.90;;;;;;2612836;54;20138;-71
2023/03/12 23:29:21;;;;;;;12.23;7.33;;;10.70;99.90;;;;;;2611656;39;20742;-71
2023/03/12 23:35:09;;;;;;;13.43;7.20;;;10.80;99.90;;;;;;2610546;46;20138;-70
2023/03/12 23:38:14;;;;;;;14.70;7.63;;;10.70;99.90;;;;;;2612136;31;20854;-71
2023/03/12 23:40:39;;;;;;;16.10;7.03;;;10.80;99.90;;;;;;2611431;47;20199;-71
2023/03/12 23:46:27;;;;;;;19.97;7.73;;;10.80;99.90;;;;;;2613465;39;20538;-71
2023/03/12 23:52:15;;;;;;;14.13;6.70;;;10.70;99.90;;;;;;2611999;54;20185;-70
2023/03/12 23:58:03;;;;;;;15.27;6.40;;;10.80;99.90;;;;;;2613180;54;20403;-70
